createdAt,value
2018-08-20T00:01:32.256Z,57.77
2018-08-20T00:04:04.456Z,58.08
2018-08-20T00:06:45.749Z,58.70
2018-08-20T00:09:15.881Z,59.44
2018-08-20T00:11:46.421Z,59.45
2018-08-20T00:14:18.141Z,58.98
2018-08-20T00:16:48.154Z,58.88
2018-08-20T00:19:18.094Z,58.93
2018-08-20T00:21:47.943Z,59.42
2018-08-20T00:24:17.766Z,59.41
2018-08-20T00:26:47.576Z,59.00
2018-08-20T00:29:17.535Z,58.70
2018-08-20T00:31:47.629Z,59.06
2018-08-20T00:34:17.380Z,58.68
2018-08-20T00:36:48.481Z,59.17
2018-08-20T00:39:18.328Z,59.43
2018-08-20T00:41:48.392Z,59.50
2018-08-20T00:44:18.803Z,60.04
2018-08-20T00:46:48.541Z,60.97
2018-08-20T00:49:18.359Z,61.44
2018-08-20T00:51:48.186Z,61.22
2018-08-20T00:54:18.481Z,61.51
2018-08-20T00:56:48.437Z,61.22
2018-08-20T00:59:18.252Z,61.51
2018-08-20T01:01:49.961Z,61.98
2018-08-20T01:04:20.541Z,61.98
2018-08-20T01:06:51.728Z,62.08
2018-08-20T01:09:22.405Z,61.58
2018-08-20T01:11:53.869Z,61.65
2018-08-20T01:14:24.418Z,61.19
2018-08-20T01:16:55.711Z,61.08
2018-08-20T01:19:26.392Z,61.46
2018-08-20T01:22:02.431Z,61.45
2018-08-20T01:24:32.298Z,60.90
2018-08-20T01:27:02.575Z,61.15
2018-08-20T01:29:32.388Z,61.54
2018-08-20T01:32:02.122Z,61.63
2018-08-20T01:34:32.631Z,61.46
2018-08-20T01:37:03.485Z,61.47
2018-08-20T01:39:34.380Z,61.50
2018-08-20T01:42:05.674Z,61.34
2018-08-20T01:44:36.656Z,61.84
2018-08-20T01:47:07.444Z,61.41
2018-08-20T01:49:38.954Z,61.72
2018-08-20T01:52:09.966Z,61.39
2018-08-20T01:54:40.520Z,61.53
2018-08-20T01:57:11.378Z,61.60
2018-08-20T01:59:42.697Z,61.81
2018-08-20T02:02:13.804Z,61.29
2018-08-20T02:04:44.453Z,61.50
2018-08-20T02:07:15.957Z,61.81
2018-08-20T02:09:46.506Z,61.31
2018-08-20T02:12:17.401Z,61.54
2018-08-20T02:14:48.652Z,61.21
2018-08-20T02:17:19.337Z,61.51
2018-08-20T02:19:51.201Z,63.27
2018-08-20T02:22:21.704Z,62.54
2018-08-20T02:24:52.501Z,62.14
2018-08-20T02:27:23.613Z,62.40
2018-08-20T02:29:54.482Z,62.29
2018-08-20T02:32:25.365Z,62.56
2018-08-20T02:34:56.885Z,62.23
2018-08-20T02:37:32.237Z,63.08
2018-08-20T02:40:02.401Z,63.08
2018-08-20T02:42:32.176Z,62.94
2018-08-20T02:45:02.673Z,63.21
2018-08-20T02:47:32.521Z,62.99
2018-08-20T02:50:02.824Z,63.40
2018-08-20T02:52:33.383Z,63.04
2018-08-20T02:55:12.222Z,63.09
2018-08-20T02:57:42.181Z,63.21
2018-08-20T03:00:14.304Z,62.80
2018-08-20T03:02:44.423Z,63.25
2018-08-20T03:05:14.304Z,62.86
2018-08-20T03:07:44.233Z,63.01
2018-08-20T03:10:14.650Z,63.16
2018-08-20T03:12:44.434Z,63.25
2018-08-20T03:15:14.250Z,63.35
2018-08-20T03:17:44.123Z,63.15
2018-08-20T03:20:14.580Z,63.20
2018-08-20T03:22:45.742Z,63.73
2018-08-20T03:25:16.337Z,63.51
2018-08-20T03:27:47.718Z,63.92
2018-08-20T03:30:18.305Z,63.46
2018-08-20T03:32:49.843Z,63.72
2018-08-20T03:35:20.397Z,63.98
2018-08-20T03:37:51.733Z,63.72
2018-08-20T03:40:22.553Z,63.62
2018-08-20T03:42:53.416Z,64.21
2018-08-20T03:45:24.701Z,63.90
2018-08-20T03:47:55.665Z,64.08
2018-08-20T03:50:26.364Z,63.98
2018-08-20T03:52:57.909Z,63.99
2018-08-20T03:55:28.842Z,64.85
2018-08-20T03:57:59.665Z,64.78
2018-08-20T04:00:30.332Z,64.99
2018-08-20T04:03:01.733Z,66.25
2018-08-20T04:05:32.354Z,66.05
2018-08-20T04:08:04.144Z,66.74
2018-08-20T04:10:34.594Z,66.38
2018-08-20T04:13:05.584Z,66.32
2018-08-20T04:15:36.416Z,67.60
2018-08-20T04:18:07.676Z,66.35
2018-08-20T04:20:38.407Z,66.89
2018-08-20T04:23:09.819Z,67.03
2018-08-20T04:25:40.383Z,67.05
2018-08-20T04:28:11.818Z,67.63
2018-08-20T04:30:42.445Z,67.78
2018-08-20T04:33:13.616Z,68.17
2018-08-20T04:35:44.336Z,68.58
2018-08-20T04:38:15.853Z,67.99
2018-08-20T04:40:46.436Z,68.38
2018-08-20T04:43:17.757Z,68.30
2018-08-20T04:45:48.449Z,68.86
2018-08-20T04:48:19.715Z,68.70
2018-08-20T04:50:50.457Z,69.20
2018-08-20T04:53:21.862Z,68.41
2018-08-20T04:55:52.386Z,68.12
2018-08-20T04:58:23.826Z,68.51
2018-08-20T05:00:54.374Z,67.81
2018-08-20T05:03:25.758Z,67.67
2018-08-20T05:05:56.329Z,67.67
2018-08-20T05:08:27.975Z,67.42
2018-08-20T05:10:58.506Z,67.46
2018-08-20T05:13:29.491Z,67.14
2018-08-20T05:16:00.720Z,67.04
2018-08-20T05:18:31.412Z,66.66
2018-08-20T05:21:02.868Z,66.64
2018-08-20T05:23:33.831Z,66.12
2018-08-20T05:26:04.461Z,66.19
2018-08-20T05:28:35.393Z,66.20
2018-08-20T05:31:05.855Z,66.37
2018-08-20T05:33:36.465Z,66.37
2018-08-20T05:36:07.644Z,66.79
2018-08-20T05:38:38.797Z,66.47
2018-08-20T05:41:09.340Z,66.09
2018-08-20T05:43:40.913Z,66.31
2018-08-20T05:46:11.497Z,65.86
2018-08-20T05:48:42.757Z,65.76
2018-08-20T05:51:13.356Z,65.62
2018-08-20T05:53:45.034Z,65.71
2018-08-20T05:56:15.475Z,65.28
2018-08-20T05:58:46.753Z,65.52
2018-08-20T06:01:18.161Z,65.28
2018-08-20T06:03:48.903Z,65.03
2018-08-20T06:06:19.406Z,64.99
2018-08-20T06:08:51.002Z,64.28
2018-08-20T06:11:21.533Z,64.63
2018-08-20T06:13:52.628Z,64.02
2018-08-20T06:16:23.457Z,63.96
2018-08-20T06:18:54.927Z,63.86
2018-08-20T06:21:25.433Z,63.45
2018-08-20T06:23:56.896Z,63.62
2018-08-20T06:26:27.813Z,63.65
2018-08-20T06:28:58.624Z,62.50
2018-08-20T06:31:29.561Z,62.61
2018-08-20T06:34:00.857Z,60.72
2018-08-20T06:36:31.492Z,58.92
2018-08-20T06:39:02.972Z,58.87
2018-08-20T06:41:34.665Z,58.86
2018-08-20T06:44:04.850Z,58.13
2018-08-20T06:46:35.602Z,56.61
2018-08-20T06:49:07.445Z,56.15
2018-08-20T06:51:37.831Z,56.23
2018-08-20T06:54:09.434Z,56.43
2018-08-20T06:56:40.017Z,54.54
2018-08-20T06:59:13.036Z,53.94
2018-08-20T07:02:46.242Z,53.40
2018-08-20T07:05:16.205Z,53.04
2018-08-20T07:07:46.066Z,52.60
2018-08-20T07:10:15.963Z,52.22
2018-08-20T07:12:46.155Z,51.55
2018-08-20T07:15:16.678Z,51.74
2018-08-20T07:17:47.334Z,51.87
2018-08-20T07:20:17.462Z,51.51
2018-08-20T07:22:47.351Z,50.93
2018-08-20T07:25:17.308Z,50.62
2018-08-20T07:39:12.256Z,47.90
2018-08-20T07:41:42.124Z,48.44
2018-08-20T07:44:11.828Z,47.86
2018-08-20T07:46:41.681Z,47.21
2018-08-20T07:49:15.923Z,45.84
2018-08-20T07:51:45.811Z,45.65
2018-08-20T07:54:16.147Z,43.99
2018-08-20T07:56:46.456Z,43.60
2018-08-20T07:59:16.992Z,42.22
2018-08-20T08:01:52.922Z,40.84
2018-08-20T08:04:22.835Z,40.01
2018-08-20T08:06:52.750Z,39.65
2018-08-20T08:09:22.869Z,38.39
2018-08-20T08:11:52.916Z,37.64
2018-08-20T08:14:23.148Z,38.02
2018-08-20T08:16:52.953Z,36.97
2018-08-20T08:19:22.765Z,36.31
2018-08-20T08:21:53.015Z,35.25
2018-08-20T08:24:22.873Z,35.91
2018-08-20T08:26:52.793Z,35.44
2018-08-20T08:29:22.820Z,36.00
2018-08-20T08:31:52.870Z,35.65
2018-08-20T08:34:22.808Z,34.50
2018-08-20T08:36:52.829Z,35.27
2018-08-20T08:39:22.691Z,33.52
2018-08-20T08:41:52.967Z,34.25
2018-08-20T08:44:22.874Z,33.25
2018-08-20T08:46:52.958Z,33.23
2018-08-20T08:49:22.750Z,32.40
2018-08-20T08:51:52.809Z,32.41
2018-08-20T08:54:22.846Z,32.66
2018-08-20T08:56:52.686Z,31.91
2018-08-20T08:59:22.838Z,31.89
2018-08-20T09:01:52.797Z,30.87
2018-08-20T09:04:22.809Z,30.35
2018-08-20T09:06:52.919Z,28.95
2018-08-20T09:09:22.678Z,29.53
2018-08-20T09:11:52.849Z,30.53
2018-08-20T09:14:23.299Z,31.25
2018-08-20T09:16:53.061Z,31.23
2018-08-20T09:19:22.901Z,31.28
2018-08-20T09:21:52.684Z,30.77
2018-08-20T09:24:22.848Z,30.06
2018-08-20T09:26:52.765Z,30.61
2018-08-20T09:29:22.766Z,30.88
2018-08-20T09:31:52.722Z,30.65
2018-08-20T09:34:22.709Z,30.10
2018-08-20T09:36:52.894Z,30.21
2018-08-20T09:39:22.710Z,29.76
2018-08-20T09:41:52.841Z,30.17
2018-08-20T09:44:22.729Z,28.75
2018-08-20T09:46:52.746Z,28.84
2018-08-20T09:49:22.802Z,28.78
2018-08-20T09:51:52.660Z,28.46
2018-08-20T09:54:22.720Z,28.40
2018-08-20T09:56:52.818Z,29.20
2018-08-20T09:59:22.713Z,28.99
2018-08-20T10:01:52.778Z,27.92
2018-08-20T10:04:22.729Z,28.74
2018-08-20T10:06:52.744Z,28.94
2018-08-20T10:09:22.758Z,27.28
2018-08-20T10:11:52.849Z,28.11
2018-08-20T10:14:22.647Z,28.90
2018-08-20T10:16:52.745Z,28.65
2018-08-20T10:19:22.823Z,29.02
2018-08-20T10:21:53.151Z,29.40
2018-08-20T10:24:22.973Z,29.62
2018-08-20T10:26:52.773Z,29.60
2018-08-20T10:29:22.659Z,29.02
2018-08-20T10:31:52.797Z,28.64
2018-08-20T10:34:22.633Z,29.39
2018-08-20T10:36:53.042Z,29.09
2018-08-20T10:39:22.812Z,29.40
2018-08-20T10:41:52.849Z,29.82
2018-08-20T10:44:22.803Z,29.25
2018-08-20T10:46:52.681Z,29.22
2018-08-20T10:49:22.534Z,28.77
2018-08-20T10:51:52.406Z,28.66
2018-08-20T10:54:22.253Z,28.55
2018-08-20T10:56:52.093Z,28.34
2018-08-20T10:59:21.820Z,28.45
2018-08-20T11:01:51.694Z,28.36
2018-08-20T11:04:21.747Z,27.80
2018-08-20T11:06:51.716Z,27.56
2018-08-20T11:09:23.094Z,27.16
2018-08-20T11:11:53.032Z,27.63
2018-08-20T11:14:23.109Z,27.23
2018-08-20T11:16:52.841Z,27.57
2018-08-20T11:19:22.765Z,26.94
2018-08-20T11:21:52.684Z,26.36
2018-08-20T11:24:22.633Z,26.90
2018-08-20T11:26:53.180Z,27.09
2018-08-20T11:29:23.106Z,26.36
2018-08-20T11:31:52.929Z,26.10
2018-08-20T11:34:22.738Z,25.43
2018-08-20T11:36:52.646Z,25.58
2018-08-20T11:39:22.751Z,25.92
2018-08-20T11:41:53.158Z,26.41
2018-08-20T11:44:22.985Z,26.18
2018-08-20T11:46:52.798Z,25.59
2018-08-20T11:49:22.706Z,25.11
2018-08-20T11:51:52.711Z,25.54
2018-08-20T11:54:22.682Z,25.38
2018-08-20T11:56:52.696Z,25.35
2018-08-20T11:59:22.717Z,25.14
2018-08-20T12:01:52.613Z,25.96
2018-08-20T12:04:24.982Z,25.74
2018-08-20T12:06:54.767Z,25.40
2018-08-20T12:09:24.814Z,25.41
2018-08-20T12:11:55.992Z,24.89
2018-08-20T12:14:25.946Z,25.60
2018-08-20T12:16:55.993Z,25.36
2018-08-20T12:19:25.732Z,25.26
2018-08-20T12:21:55.706Z,25.00
2018-08-20T12:24:25.817Z,24.82
2018-08-20T12:26:55.697Z,24.90
2018-08-20T12:29:25.751Z,24.73
2018-08-20T12:31:55.509Z,24.79
2018-08-20T12:34:25.615Z,24.30
2018-08-20T12:36:55.773Z,24.75
2018-08-20T12:39:25.620Z,24.41
2018-08-20T12:41:55.705Z,24.40
2018-08-20T12:44:25.688Z,24.27
2018-08-20T12:46:55.739Z,24.81
2018-08-20T12:49:25.820Z,23.75
2018-08-20T12:51:55.983Z,24.27
2018-08-20T12:54:26.249Z,23.84
2018-08-20T12:56:56.275Z,24.10
2018-08-20T12:59:26.041Z,24.21
2018-08-20T13:01:56.560Z,23.91
2018-08-20T13:04:26.346Z,23.10
2018-08-20T13:06:56.147Z,23.56
2018-08-20T13:09:26.415Z,23.60
2018-08-20T13:11:56.241Z,23.84
2018-08-20T13:14:26.227Z,23.59
2018-08-20T13:16:56.100Z,23.27
2018-08-20T13:19:26.772Z,23.76
2018-08-20T13:21:56.868Z,23.36
2018-08-20T13:24:26.744Z,23.74
2018-08-20T13:26:56.625Z,23.55
2018-08-20T13:29:26.395Z,23.56
2018-08-20T13:31:58.204Z,23.50
2018-08-20T13:34:28.253Z,23.15
2018-08-20T13:36:58.893Z,23.66
2018-08-20T13:39:29.711Z,23.91
2018-08-20T13:42:00.478Z,23.36
2018-08-20T13:44:31.519Z,23.92
2018-08-20T13:47:02.484Z,23.30
2018-08-20T13:49:33.789Z,23.33
2018-08-20T13:52:04.934Z,23.67
2018-08-20T13:54:36.000Z,22.94
2018-08-20T13:57:06.700Z,23.35
2018-08-20T13:59:37.561Z,23.00
2018-08-20T14:02:08.765Z,23.03
2018-08-20T14:04:39.875Z,23.19
2018-08-20T14:07:10.621Z,23.40
2018-08-20T14:09:41.757Z,22.94
2018-08-20T14:12:12.460Z,23.73
2018-08-20T14:14:44.082Z,23.85
2018-08-20T14:17:20.721Z,24.00
2018-08-20T14:19:50.517Z,24.36
2018-08-20T14:22:20.254Z,24.17
2018-08-20T14:24:50.540Z,23.69
2018-08-20T14:27:20.356Z,24.04
2018-08-20T14:29:50.195Z,23.78
2018-08-20T14:32:20.712Z,23.51
2018-08-20T14:34:51.490Z,23.58
2018-08-20T14:37:22.672Z,23.72
2018-08-20T14:39:53.420Z,23.94
2018-08-20T14:42:25.038Z,24.11
2018-08-20T14:44:55.684Z,23.17
2018-08-20T14:47:26.489Z,23.53
2018-08-20T14:49:57.707Z,23.41
2018-08-20T14:52:28.957Z,23.63
2018-08-20T14:55:00.787Z,23.34
2018-08-20T14:57:30.588Z,23.92
2018-08-20T15:00:01.356Z,24.18
2018-08-20T15:02:32.910Z,23.75
2018-08-20T15:05:03.669Z,23.91
2018-08-20T15:07:36.021Z,23.92
2018-08-20T15:10:06.390Z,24.38
2018-08-20T15:12:36.272Z,25.23
2018-08-20T15:15:08.235Z,24.86
2018-08-20T15:17:38.249Z,24.63
2018-08-20T15:20:09.779Z,24.91
2018-08-20T15:22:39.886Z,25.15
2018-08-20T15:25:10.849Z,25.34
2018-08-20T15:27:41.636Z,25.78
2018-08-20T15:30:12.405Z,25.39
2018-08-20T15:32:43.781Z,26.17
2018-08-20T15:35:14.630Z,25.95
2018-08-20T15:37:45.585Z,26.83
2018-08-20T15:40:16.345Z,26.24
2018-08-20T15:42:47.783Z,26.07
2018-08-20T15:45:18.563Z,25.73
2018-08-20T15:47:49.480Z,26.00
2018-08-20T15:50:21.184Z,26.54
2018-08-20T15:52:51.837Z,26.93
2018-08-20T15:55:22.665Z,27.31
2018-08-20T15:57:53.504Z,28.02
2018-08-20T16:00:25.106Z,27.55
2018-08-20T16:02:55.634Z,28.19
2018-08-20T16:05:26.448Z,27.18
2018-08-20T16:07:57.813Z,28.01
2018-08-20T16:10:28.590Z,27.67
2018-08-20T16:12:59.550Z,27.68
2018-08-20T16:15:30.560Z,28.83
2018-08-20T16:18:01.541Z,27.83
2018-08-20T16:20:32.361Z,28.53
2018-08-20T16:23:09.741Z,28.75
2018-08-20T16:25:39.469Z,28.47
2018-08-20T16:28:09.444Z,28.76
2018-08-20T16:30:39.255Z,29.35
2018-08-20T16:33:09.493Z,29.46
2018-08-20T16:35:39.369Z,29.81
2018-08-20T16:38:09.745Z,29.77
2018-08-20T16:40:40.585Z,30.19
2018-08-20T16:43:11.558Z,30.75
2018-08-20T16:45:42.449Z,30.52
2018-08-20T16:48:13.977Z,31.16
2018-08-20T16:50:44.829Z,31.49
2018-08-20T16:53:15.919Z,31.13
2018-08-20T16:55:46.872Z,31.49
2018-08-20T16:58:17.621Z,32.02
2018-08-20T17:00:48.465Z,32.31
2018-08-20T17:03:19.835Z,32.21
2018-08-20T17:05:51.689Z,32.18
2018-08-20T17:08:26.229Z,32.46
2018-08-20T17:10:56.172Z,32.77
2018-08-20T17:13:26.435Z,33.30
2018-08-20T17:15:56.400Z,32.75
2018-08-20T17:18:26.306Z,33.15
2018-08-20T17:20:57.034Z,33.29
2018-08-20T17:23:28.223Z,34.22
2018-08-20T17:26:06.695Z,35.05
2018-08-20T17:28:36.530Z,35.42
2018-08-20T17:31:08.796Z,35.23
2018-08-20T17:33:38.705Z,35.87
2018-08-20T17:36:09.829Z,35.55
2018-08-20T17:38:39.654Z,36.17
2018-08-20T17:41:10.325Z,36.52
2018-08-20T17:43:40.142Z,37.25
2018-08-20T17:46:10.571Z,37.62
2018-08-20T17:48:41.948Z,38.53
2018-08-20T17:51:13.017Z,38.72
2018-08-20T17:54:00.016Z,39.62
2018-08-20T17:56:30.881Z,40.16
2018-08-20T17:59:05.881Z,40.59
2018-08-20T18:01:37.164Z,41.28
2018-08-20T18:04:07.270Z,40.53
2018-08-20T18:06:46.959Z,41.58
2018-08-20T18:09:16.863Z,42.24
2018-08-20T18:11:51.468Z,42.68
2018-08-20T18:14:22.861Z,43.41
2018-08-20T18:16:52.913Z,43.11
2018-08-20T18:19:22.836Z,43.13
2018-08-20T18:21:52.861Z,42.96
2018-08-20T18:24:23.222Z,43.94
2018-08-20T18:26:56.312Z,44.19
2018-08-20T18:29:26.065Z,44.19
2018-08-20T18:31:58.792Z,45.04
2018-08-20T18:34:28.717Z,44.50
2018-08-20T18:36:59.206Z,45.12
2018-08-20T18:39:28.930Z,44.72
2018-08-20T18:42:04.932Z,44.95
2018-08-20T18:44:35.345Z,45.31
2018-08-20T18:47:05.867Z,45.44
2018-08-20T18:49:39.366Z,45.99
2018-08-20T18:52:11.214Z,46.07
2018-08-20T18:54:56.848Z,46.95
2018-08-20T18:57:30.261Z,45.81
2018-08-20T19:00:01.305Z,46.41
2018-08-20T19:02:41.965Z,46.49
2018-08-20T19:05:13.192Z,47.01
2018-08-20T19:07:43.902Z,46.39
2018-08-20T19:10:23.297Z,46.60
2018-08-20T19:12:53.149Z,45.86
2018-08-20T19:15:33.613Z,45.49
2018-08-20T19:18:04.209Z,45.08
2018-08-20T19:20:34.108Z,44.72
2018-08-20T19:23:03.935Z,45.57
2018-08-20T19:25:34.063Z,45.22
2018-08-20T19:28:35.297Z,45.63
2018-08-20T19:31:06.852Z,45.33
2018-08-20T19:33:37.882Z,45.68
2018-08-20T19:36:08.671Z,45.66
2018-08-20T19:38:39.277Z,46.19
2018-08-20T19:41:14.245Z,45.63
2018-08-20T19:43:51.657Z,46.01
2018-08-20T19:46:30.381Z,45.99
2018-08-20T19:49:06.166Z,46.40
2018-08-20T19:51:37.695Z,46.24
2018-08-20T19:54:09.045Z,45.77
2018-08-20T19:56:40.185Z,46.10
2018-08-20T19:59:10.942Z,45.69
2018-08-20T20:01:41.109Z,46.10
2018-08-20T20:04:16.032Z,46.03
2018-08-20T20:06:46.091Z,45.68
2018-08-20T20:09:16.176Z,45.67
2018-08-20T20:11:51.580Z,45.91
2018-08-20T20:14:21.982Z,46.48
2018-08-20T20:16:55.697Z,45.97
2018-08-20T20:19:25.793Z,46.36
2018-08-20T20:21:55.698Z,46.32
2018-08-20T20:24:25.825Z,46.01
2018-08-20T20:26:57.136Z,46.40
2018-08-20T20:29:27.500Z,46.08
2018-08-20T20:32:02.570Z,46.27
2018-08-20T20:34:32.782Z,46.64
2018-08-20T20:37:02.872Z,46.64
2018-08-20T20:39:33.049Z,45.96
2018-08-20T20:42:04.162Z,46.55
2018-08-20T20:44:34.125Z,46.72
2018-08-20T20:47:04.551Z,46.88
2018-08-20T20:49:34.450Z,46.82
2018-08-20T20:52:04.662Z,47.08
2018-08-20T20:54:35.916Z,46.82
2018-08-20T20:57:06.248Z,47.49
2018-08-20T20:59:36.624Z,47.29
2018-08-20T21:02:07.589Z,46.97
2018-08-20T21:04:38.489Z,47.46
2018-08-20T21:07:08.518Z,47.26
2018-08-20T21:09:43.657Z,47.77
2018-08-20T21:12:13.633Z,47.87
2018-08-20T21:14:43.859Z,47.46
2018-08-20T21:17:14.566Z,47.21
2018-08-20T21:19:45.352Z,47.26
2018-08-20T21:22:17.348Z,47.27
2018-08-20T21:24:47.536Z,47.71
2018-08-20T21:27:22.598Z,47.90
2018-08-20T21:29:54.022Z,48.38
2018-08-20T21:32:24.165Z,48.56
2018-08-20T21:34:54.068Z,48.62
2018-08-20T21:37:34.698Z,48.01
2018-08-20T21:40:07.958Z,48.21
2018-08-20T21:42:43.832Z,48.70
2018-08-20T21:45:14.354Z,48.56
2018-08-20T21:47:44.806Z,48.71
2018-08-20T21:50:53.563Z,48.45
2018-08-20T21:53:28.082Z,48.77
2018-08-20T21:55:58.117Z,49.13
2018-08-20T21:58:28.008Z,49.17
2018-08-20T22:00:58.241Z,48.91
2018-08-20T22:03:28.479Z,48.76
2018-08-20T22:05:58.328Z,48.80
2018-08-20T22:08:29.973Z,49.12
2018-08-20T22:11:00.233Z,48.98
2018-08-20T22:13:30.172Z,49.48
2018-08-20T22:16:15.357Z,49.37
2018-08-20T22:18:46.324Z,49.70
2018-08-20T22:21:17.444Z,50.13
2018-08-20T22:23:47.824Z,50.08
2018-08-20T22:26:20.538Z,50.69
2018-08-20T22:28:52.712Z,51.26
2018-08-20T22:31:22.841Z,50.73
2018-08-20T22:33:58.854Z,51.39
2018-08-20T22:36:30.460Z,52.16
2018-08-20T22:39:01.752Z,52.06
2018-08-20T22:41:32.614Z,51.81
2018-08-20T22:44:04.309Z,52.31
2018-08-20T22:46:34.901Z,52.15
2018-08-20T22:49:05.053Z,52.39
2018-08-20T22:51:35.116Z,52.83
2018-08-20T22:54:05.282Z,53.02
2018-08-20T22:56:36.423Z,52.74
2018-08-20T22:59:10.852Z,53.13
2018-08-20T23:01:41.507Z,53.28
2018-08-20T23:04:11.854Z,53.47
2018-08-20T23:06:41.891Z,53.45
2018-08-20T23:09:25.928Z,53.79
2018-08-20T23:11:56.336Z,54.42
2018-08-20T23:14:26.745Z,54.83
2018-08-20T23:16:56.676Z,54.45
2018-08-20T23:19:27.632Z,54.92
2018-08-20T23:21:57.724Z,54.77
2018-08-20T23:24:27.715Z,54.98
2018-08-20T23:26:57.839Z,54.77
2018-08-20T23:29:27.650Z,54.63
2018-08-20T23:31:57.804Z,54.80
2018-08-20T23:34:27.665Z,54.71
2018-08-20T23:36:57.732Z,54.67
2018-08-20T23:39:27.873Z,55.08
2018-08-20T23:41:57.769Z,54.92
2018-08-20T23:44:27.720Z,55.16
2018-08-20T23:46:57.702Z,55.38
2018-08-20T23:49:28.123Z,55.80
2018-08-20T23:51:57.936Z,55.83
2018-08-20T23:54:27.689Z,55.93
2018-08-20T23:56:57.746Z,56.19
2018-08-20T23:59:27.829Z,56.25
